Time;durP1;ratioP1;P1;durP2;ratioP2;P2;SDS_P1;SDS_P2;PMS_P1;PMS_P2;Temp;Humidity;BMP_temperature;BMP_pressure;BME280_temperature;BME280_humidity;BME280_pressure;Samples;Min_cycle;Max_cycle;Signal;HPM_P1;HPM_P2
2022/12/04 00:00:10;;;;;;;18.33;8.20;;;3.80;99.90;;;;;;5058634;28;20258;-77
2022/12/04 00:02:36;;;;;;;15.30;9.30;;;3.80;99.90;;;;;;5059691;28;20187;-76
2022/12/04 00:05:03;;;;;;;21.60;8.83;;;3.70;99.90;;;;;;5058604;28;20496;-76
2022/12/04 00:07:29;;;;;;;12.50;7.87;;;3.70;99.90;;;;;;5059693;28;20254;-77
2022/12/04 00:09:54;;;;;;;15.80;8.27;;;3.70;99.90;;;;;;5058937;28;20456;-76
2022/12/04 00:12:20;;;;;;;18.97;8.20;;;3.70;99.90;;;;;;5058455;28;20171;-76
2022/12/04 00:14:45;;;;;;;15.23;9.50;;;3.70;99.90;;;;;;5058531;28;20574;-77
2022/12/04 00:17:11;;;;;;;17.93;8.93;;;3.70;99.90;;;;;;5059196;28;20179;-77
2022/12/04 00:19:36;;;;;;;16.40;8.90;;;3.70;99.90;;;;;;5059503;28;20182;-77
2022/12/04 00:22:02;;;;;;;15.83;7.63;;;3.70;99.90;;;;;;5057618;28;20171;-76
2022/12/04 00:24:27;;;;;;;14.47;8.30;;;3.70;99.90;;;;;;5057693;28;20592;-77
2022/12/04 00:26:53;;;;;;;18.23;8.03;;;3.80;99.90;;;;;;5059087;28;20171;-76
2022/12/04 00:29:19;;;;;;;13.57;7.70;;;3.70;99.90;;;;;;5059157;28;20265;-77
2022/12/04 00:31:44;;;;;;;14.07;8.07;;;3.80;99.90;;;;;;5058346;28;20186;-77
2022/12/04 00:34:10;;;;;;;19.73;9.10;;;3.70;99.90;;;;;;5058254;28;20293;-75
2022/12/04 00:36:36;;;;;;;14.00;8.07;;;3.80;99.90;;;;;;5056906;28;20179;-76
2022/12/04 00:39:02;;;;;;;15.27;8.07;;;3.80;99.90;;;;;;5058197;28;20405;-77
2022/12/04 00:41:29;;;;;;;16.50;8.70;;;3.80;99.90;;;;;;5056851;28;20739;-77
2022/12/04 00:43:55;;;;;;;15.43;9.23;;;3.80;99.90;;;;;;5057605;28;20465;-76
2022/12/04 00:46:21;;;;;;;19.07;8.20;;;3.80;99.90;;;;;;5059351;28;20803;-75
2022/12/04 00:48:46;;;;;;;11.60;7.17;;;3.70;99.90;;;;;;5059087;28;20163;-77
2022/12/04 00:51:14;;;;;;;19.00;9.47;;;3.80;99.90;;;;;;5059307;28;20405;-77
2022/12/04 00:53:41;;;;;;;17.37;8.63;;;3.70;99.90;;;;;;5057501;28;20237;-77
2022/12/04 00:56:10;;;;;;;18.10;9.03;;;3.70;99.90;;;;;;5057708;28;20512;-77
2022/12/04 00:58:35;;;;;;;17.10;8.63;;;3.70;99.90;;;;;;5059034;28;20412;-76
2022/12/04 01:01:07;;;;;;;16.30;7.03;;;3.60;99.90;;;;;;5058465;28;20409;-77
2022/12/04 01:03:33;;;;;;;17.13;7.57;;;3.60;99.90;;;;;;5057700;28;20194;-77
2022/12/04 01:05:59;;;;;;;18.50;8.97;;;3.60;99.90;;;;;;5059145;28;20771;-77
2022/12/04 01:08:25;;;;;;;17.83;9.67;;;3.60;99.90;;;;;;5059172;28;20410;-77
2022/12/04 01:10:50;;;;;;;18.13;8.80;;;3.60;99.90;;;;;;5058723;28;20409;-77
2022/12/04 01:13:16;;;;;;;18.03;8.50;;;3.60;99.90;;;;;;5058443;28;20223;-77
2022/12/04 01:15:42;;;;;;;17.20;8.00;;;3.60;99.90;;;;;;5058383;28;20189;-76
2022/12/04 01:18:11;;;;;;;14.00;7.40;;;3.60;99.90;;;;;;5059233;28;20246;-77
2022/12/04 01:20:37;;;;;;;17.00;9.17;;;3.50;99.90;;;;;;5058865;28;20544;-77
2022/12/04 01:23:03;;;;;;;17.80;8.07;;;3.50;99.90;;;;;;5058776;28;20487;-76
2022/12/04 01:25:28;;;;;;;17.00;7.87;;;3.40;99.90;;;;;;5057056;28;20166;-77
2022/12/04 01:27:54;;;;;;;21.43;9.60;;;3.40;99.90;;;;;;5057566;28;20175;-76
2022/12/04 01:30:20;;;;;;;15.17;8.50;;;3.40;99.90;;;;;;5058476;28;20178;-77
2022/12/04 01:32:45;;;;;;;14.23;8.07;;;3.40;99.90;;;;;;5057913;28;20601;-77
2022/12/04 01:35:11;;;;;;;18.90;7.30;;;3.40;99.90;;;;;;5057888;28;20671;-77
2022/12/04 01:37:36;;;;;;;14.43;8.43;;;3.40;99.90;;;;;;5058127;28;20167;-77
2022/12/04 01:40:04;;;;;;;16.27;8.80;;;3.40;99.90;;;;;;5056761;28;20170;-76
2022/12/04 01:42:30;;;;;;;14.17;7.97;;;3.30;99.90;;;;;;5058168;28;20600;-76
2022/12/04 01:45:29;;;;;;;26.23;11.00;;;3.30;99.90;;;;;;5056587;28;20444;-77
2022/12/04 01:48:00;;;;;;;17.50;8.40;;;3.30;99.90;;;;;;5057037;28;20408;-77
2022/12/04 01:50:28;;;;;;;13.83;7.87;;;3.40;99.90;;;;;;5057811;28;20488;-77
2022/12/04 01:52:53;;;;;;;17.93;8.50;;;3.30;99.90;;;;;;5057963;28;20422;-77
2022/12/04 01:55:19;;;;;;;12.40;7.03;;;3.40;99.90;;;;;;5057238;28;20448;-77
2022/12/04 01:57:45;;;;;;;16.50;8.57;;;3.30;99.90;;;;;;5056983;28;20163;-77
2022/12/04 02:00:13;;;;;;;19.53;9.00;;;3.30;99.90;;;;;;5058296;28;20169;-77
2022/12/04 02:02:41;;;;;;;14.10;7.60;;;3.40;99.90;;;;;;5057172;28;20471;-77
2022/12/04 02:05:10;;;;;;;12.33;7.60;;;3.40;99.90;;;;;;5057209;28;20412;-77
2022/12/04 02:07:37;;;;;;;12.30;7.57;;;3.50;99.90;;;;;;5056390;28;20417;-77
2022/12/04 02:10:07;;;;;;;20.10;10.00;;;3.50;99.90;;;;;;5056092;28;20449;-77
2022/12/04 02:13:03;;;;;;;13.17;6.57;;;3.50;99.90;;;;;;5056899;28;20425;-77
2022/12/04 02:15:47;;;;;;;17.80;8.47;;;3.50;99.90;;;;;;5056521;28;20498;-77
2022/12/04 02:18:20;;;;;;;16.37;7.77;;;3.50;99.90;;;;;;5057462;28;20440;-77
2022/12/04 02:21:09;;;;;;;11.90;5.87;;;3.50;99.90;;;;;;5057837;28;20428;-77
2022/12/04 02:23:56;;;;;;;12.77;8.00;;;3.60;99.90;;;;;;5058366;28;20455;-77
2022/12/04 02:26:55;;;;;;;16.80;7.53;;;3.60;99.90;;;;;;5053963;28;20409;-77
2022/12/04 02:29:56;;;;;;;12.27;6.67;;;3.50;99.90;;;;;;5056693;28;20442;-76
2022/12/04 02:32:34;;;;;;;13.53;7.00;;;3.50;99.90;;;;;;5055899;28;20464;-77
2022/12/04 02:35:07;;;;;;;16.77;7.73;;;3.40;99.90;;;;;;5054881;28;20461;-77
2022/12/04 02:37:40;;;;;;;20.40;9.00;;;3.40;99.90;;;;;;5055458;28;20409;-77
2022/12/04 02:40:13;;;;;;;11.53;6.67;;;3.40;99.90;;;;;;5056406;28;20921;-77
2022/12/04 02:42:46;;;;;;;12.63;7.43;;;3.40;99.90;;;;;;5056436;28;20508;-77
2022/12/04 02:45:27;;;;;;;13.53;7.27;;;3.50;99.90;;;;;;5060465;28;20439;-76
2022/12/04 02:47:55;;;;;;;13.90;6.67;;;3.50;99.90;;;;;;5059152;28;20530;-77
2022/12/04 02:50:22;;;;;;;11.53;6.37;;;3.40;99.90;;;;;;5059287;28;20775;-77
2022/12/04 02:52:54;;;;;;;13.53;6.70;;;3.40;99.90;;;;;;5059293;28;20582;-77
2022/12/04 02:55:26;;;;;;;11.83;6.47;;;3.40;99.90;;;;;;5060544;28;20417;-77
2022/12/04 02:57:56;;;;;;;14.20;7.53;;;3.40;99.90;;;;;;5059298;28;20496;-77
2022/12/04 03:00:22;;;;;;;10.67;6.23;;;3.30;99.90;;;;;;5058899;28;20778;-77
2022/12/04 03:02:55;;;;;;;12.07;5.93;;;3.40;99.90;;;;;;5060087;28;20429;-77
2022/12/04 03:05:30;;;;;;;9.97;5.57;;;3.40;99.90;;;;;;5058886;28;20239;-77
2022/12/04 03:08:01;;;;;;;12.40;6.33;;;3.40;99.90;;;;;;5059601;28;20451;-77
2022/12/04 03:10:35;;;;;;;10.97;5.70;;;3.40;99.90;;;;;;5059009;28;20421;-77
2022/12/04 03:13:12;;;;;;;12.73;6.10;;;3.30;99.90;;;;;;5058376;28;20470;-76
2022/12/04 03:15:44;;;;;;;11.83;7.20;;;3.30;99.90;;;;;;5059517;28;20966;-77
2022/12/04 03:18:27;;;;;;;12.60;6.23;;;3.30;99.90;;;;;;5060695;28;20405;-75
2022/12/04 03:21:01;;;;;;;11.37;5.90;;;3.30;99.90;;;;;;5060457;28;20412;-77
2022/12/04 03:23:35;;;;;;;13.07;5.00;;;3.30;99.90;;;;;;5059003;28;20493;-77
2022/12/04 03:26:22;;;;;;;11.83;5.03;;;3.20;99.90;;;;;;5058220;28;20425;-77
2022/12/04 03:28:58;;;;;;;11.33;5.47;;;3.30;99.90;;;;;;5060170;28;20405;-76
2022/12/04 03:31:38;;;;;;;8.13;5.63;;;3.20;99.90;;;;;;5059926;28;20421;-75
2022/12/04 03:34:06;;;;;;;11.03;5.63;;;3.20;99.90;;;;;;5057863;28;20475;-77
2022/12/04 03:36:37;;;;;;;9.13;4.37;;;3.20;99.90;;;;;;5059512;28;20561;-77
2022/12/04 03:39:16;;;;;;;10.40;5.20;;;3.20;99.90;;;;;;5058049;28;20808;-76
2022/12/04 03:41:53;;;;;;;5.40;3.60;;;3.20;99.90;;;;;;5059815;28;20406;-76
2022/12/04 03:44:35;;;;;;;9.43;5.40;;;3.20;99.90;;;;;;5057569;28;20428;-77
2022/12/04 03:47:07;;;;;;;8.43;5.50;;;3.20;99.90;;;;;;5059543;28;20767;-77
2022/12/04 03:49:40;;;;;;;9.13;4.70;;;3.20;99.90;;;;;;5058477;28;20413;-76
2022/12/04 03:52:19;;;;;;;12.80;6.27;;;3.20;99.90;;;;;;5057743;28;20433;-77
2022/12/04 03:55:12;;;;;;;10.50;6.20;;;3.20;99.90;;;;;;5058176;28;20437;-76
2022/12/04 03:57:42;;;;;;;11.50;5.73;;;3.10;99.90;;;;;;5058758;28;20624;-77
2022/12/04 04:00:16;;;;;;;8.80;5.90;;;3.10;99.90;;;;;;5059657;28;20481;-77
2022/12/04 04:02:58;;;;;;;6.97;5.20;;;3.10;99.90;;;;;;5059608;28;20941;-77
2022/12/04 04:05:26;;;;;;;7.20;4.20;;;3.00;99.90;;;;;;5058867;28;20397;-77
2022/12/04 04:08:24;;;;;;;10.77;5.20;;;3.00;99.90;;;;;;5059959;28;20910;-77
2022/12/04 04:10:42;;;;;;;10.37;5.57;;;3.00;99.90;;;;;;5059578;28;20416;-77
2022/12/04 04:24:36;;;;;;;14.17;6.90;;;2.90;99.90;;;;;;5058750;28;20468;-76
2022/12/04 04:27:02;;;;;;;12.57;6.20;;;2.80;99.90;;;;;;5057051;28;20421;-76
2022/12/04 04:29:28;;;;;;;14.30;6.93;;;2.80;99.90;;;;;;5059193;28;20420;-76
2022/12/04 04:32:00;;;;;;;13.80;7.13;;;2.80;99.90;;;;;;5059089;28;20907;-76
2022/12/04 04:34:55;;;;;;;9.10;6.07;;;2.80;99.90;;;;;;5057217;28;20490;-75
2022/12/04 04:37:44;;;;;;;13.53;7.40;;;2.70;99.90;;;;;;5057753;28;20470;-76
2022/12/04 04:40:26;;;;;;;13.53;6.57;;;2.70;99.90;;;;;;5058147;28;20708;-77
2022/12/04 04:43:19;;;;;;;9.00;6.87;;;2.70;99.90;;;;;;5058409;28;20434;-76
2022/12/04 04:46:10;;;;;;;10.57;6.50;;;2.60;99.90;;;;;;5057709;28;20420;-77
2022/12/04 04:48:40;;;;;;;10.00;5.83;;;2.70;99.90;;;;;;5059123;28;20500;-77
2022/12/04 04:51:06;;;;;;;10.00;5.80;;;2.70;99.90;;;;;;5057810;28;20514;-77
2022/12/04 04:53:40;;;;;;;11.63;6.10;;;2.70;99.90;;;;;;5058925;28;20457;-77
2022/12/04 04:56:06;;;;;;;10.50;6.20;;;2.70;99.90;;;;;;5058367;28;20405;-77
2022/12/04 04:58:32;;;;;;;10.50;5.93;;;2.70;99.90;;;;;;5058712;28;20417;-76
2022/12/04 05:01:13;;;;;;;16.20;7.63;;;2.70;99.90;;;;;;5059103;28;20420;-76
2022/12/04 05:03:39;;;;;;;11.03;6.00;;;2.70;99.90;;;;;;5057259;28;20961;-77
2022/12/04 05:06:05;;;;;;;8.83;5.27;;;2.80;99.90;;;;;;5057603;28;20414;-76
2022/12/04 05:08:31;;;;;;;10.33;6.30;;;2.80;99.90;;;;;;5058682;28;20409;-77
2022/12/04 05:10:56;;;;;;;14.17;7.80;;;2.80;99.90;;;;;;5058952;28;20414;-76
2022/12/04 05:13:22;;;;;;;14.77;7.60;;;2.80;99.90;;;;;;5057226;28;20209;-77
2022/12/04 05:16:06;;;;;;;11.40;7.47;;;2.70;99.90;;;;;;5056826;28;20167;-77
2022/12/04 05:18:33;;;;;;;13.93;7.47;;;2.70;99.90;;;;;;5056411;28;20217;-77
2022/12/04 05:21:04;;;;;;;11.10;6.47;;;2.70;99.90;;;;;;5056653;28;20414;-77
2022/12/04 05:23:30;;;;;;;10.93;6.20;;;2.70;99.90;;;;;;5057846;28;20436;-77
2022/12/04 05:26:03;;;;;;;16.20;7.13;;;2.70;99.90;;;;;;5056401;28;20413;-77
2022/12/04 05:28:29;;;;;;;13.03;5.77;;;2.80;99.90;;;;;;5056998;28;20533;-76
2022/12/04 05:31:00;;;;;;;11.23;6.40;;;2.80;99.90;;;;;;5057943;28;20475;-76
2022/12/04 05:33:26;;;;;;;12.23;7.10;;;2.90;99.90;;;;;;5056419;28;20199;-77
2022/12/04 05:36:08;;;;;;;14.23;6.60;;;2.90;99.90;;;;;;5051980;28;20440;-77
2022/12/04 05:38:34;;;;;;;10.87;5.87;;;2.90;99.90;;;;;;5052052;28;20440;-77
2022/12/04 05:41:02;;;;;;;11.40;6.50;;;2.90;99.90;;;;;;5054615;28;20405;-77
2022/12/04 05:43:28;;;;;;;8.53;5.07;;;2.90;99.90;;;;;;5058832;28;20433;-77
2022/12/04 05:45:53;;;;;;;11.77;6.83;;;2.80;99.90;;;;;;5059250;28;20925;-78
2022/12/04 05:48:19;;;;;;;10.77;6.60;;;2.90;99.90;;;;;;5058452;28;20183;-78
2022/12/04 05:50:45;;;;;;;10.50;6.43;;;2.90;99.90;;;;;;5058077;28;20235;-78
2022/12/04 05:53:10;;;;;;;13.03;7.00;;;2.80;99.90;;;;;;5057872;28;20205;-78
2022/12/04 05:55:36;;;;;;;10.90;7.37;;;2.80;99.90;;;;;;5059132;28;20655;-78
2022/12/04 05:58:02;;;;;;;10.70;6.23;;;2.80;99.90;;;;;;5059056;28;20659;-78
2022/12/04 06:00:28;;;;;;;12.70;6.77;;;2.80;99.90;;;;;;5058070;28;20179;-78
2022/12/04 06:02:53;;;;;;;8.77;5.30;;;2.90;99.90;;;;;;5057418;28;20631;-77
2022/12/04 06:05:19;;;;;;;14.73;6.43;;;2.90;99.90;;;;;;5058180;28;20409;-77
2022/12/04 06:07:44;;;;;;;13.40;6.53;;;3.00;99.90;;;;;;5057235;28;20274;-77
2022/12/04 06:10:10;;;;;;;11.57;6.10;;;3.00;99.90;;;;;;5055911;28;20182;-76
2022/12/04 06:12:36;;;;;;;6.60;4.70;;;3.00;99.90;;;;;;5057039;28;20206;-77
2022/12/04 06:15:01;;;;;;;9.17;4.57;;;2.90;99.90;;;;;;5056533;28;20206;-77
2022/12/04 06:17:27;;;;;;;11.53;5.70;;;3.00;99.90;;;;;;5058127;28;20261;-77
2022/12/04 06:19:54;;;;;;;13.00;6.93;;;3.00;99.90;;;;;;5060577;28;20166;-77
2022/12/04 06:22:20;;;;;;;8.83;6.27;;;2.90;99.90;;;;;;5060624;28;20175;-78
2022/12/04 06:24:45;;;;;;;7.70;4.77;;;2.90;99.90;;;;;;5056608;28;20405;-76
2022/12/04 06:27:11;;;;;;;11.13;5.13;;;3.00;99.90;;;;;;5054361;28;20174;-76
2022/12/04 06:29:36;;;;;;;9.07;4.87;;;3.00;99.90;;;;;;5061729;28;20167;-78
2022/12/04 06:32:02;;;;;;;9.30;5.20;;;2.90;99.90;;;;;;5058043;28;20190;-78
2022/12/04 06:34:28;;;;;;;7.83;4.90;;;2.80;99.90;;;;;;5061953;28;20252;-77
2022/12/04 06:36:54;;;;;;;9.30;5.30;;;2.80;99.90;;;;;;5056650;28;20404;-77
2022/12/04 06:39:19;;;;;;;9.47;5.67;;;2.80;99.90;;;;;;5055441;28;20405;-77
2022/12/04 06:41:46;;;;;;;10.23;6.40;;;2.70;99.90;;;;;;5055631;28;20167;-77
2022/12/04 06:44:13;;;;;;;8.47;5.37;;;2.70;99.90;;;;;;5055181;28;20218;-76
2022/12/04 06:46:38;;;;;;;6.47;4.30;;;2.70;99.90;;;;;;5053824;28;20413;-75
2022/12/04 06:49:04;;;;;;;6.10;4.20;;;2.70;99.90;;;;;;5057920;28;20531;-78
2022/12/04 06:51:32;;;;;;;7.90;4.20;;;2.70;99.90;;;;;;5060006;28;20175;-77
2022/12/04 06:53:59;;;;;;;8.03;4.60;;;2.60;99.90;;;;;;5059623;28;20213;-76
2022/12/04 06:56:27;;;;;;;5.40;3.80;;;2.60;99.90;;;;;;5055342;28;20403;-75
2022/12/04 06:58:54;;;;;;;10.00;5.60;;;2.50;99.90;;;;;;5053732;28;20405;-75
2022/12/04 07:01:29;;;;;;;8.90;4.70;;;2.50;99.90;;;;;;5056978;28;20414;-78
2022/12/04 07:03:56;;;;;;;5.83;4.70;;;2.40;99.90;;;;;;5057735;28;20930;-78
2022/12/04 07:06:27;;;;;;;10.77;5.90;;;2.30;99.90;;;;;;5057477;28;20448;-77
2022/12/04 07:08:57;;;;;;;11.37;5.50;;;2.30;99.90;;;;;;5055018;28;20941;-75
2022/12/04 07:11:23;;;;;;;9.00;4.43;;;2.40;99.90;;;;;;5054892;28;20437;-75
2022/12/04 07:13:49;;;;;;;10.03;5.30;;;2.20;99.90;;;;;;5053291;28;20492;-75
2022/12/04 07:16:17;;;;;;;10.07;5.40;;;2.20;99.90;;;;;;5056119;28;20166;-78
2022/12/04 07:18:44;;;;;;;14.33;6.00;;;2.20;99.90;;;;;;5059648;28;21009;-78
2022/12/04 07:21:13;;;;;;;7.43;4.87;;;2.10;99.90;;;;;;5060684;28;20436;-77
2022/12/04 07:23:39;;;;;;;8.53;5.53;;;2.00;99.90;;;;;;5058630;28;20516;-76
2022/12/04 07:26:10;;;;;;;10.83;5.73;;;2.00;99.90;;;;;;5058383;28;20977;-76
2022/12/04 07:28:36;;;;;;;10.10;5.90;;;2.00;99.90;;;;;;5056384;28;20171;-76
2022/12/04 07:31:11;;;;;;;8.07;5.33;;;2.00;99.90;;;;;;5057395;28;20429;-76
2022/12/04 07:33:37;;;;;;;7.73;5.47;;;2.00;99.90;;;;;;5060412;28;20460;-77
2022/12/04 07:36:06;;;;;;;9.47;5.20;;;2.00;99.90;;;;;;5059503;28;20440;-76
2022/12/04 07:38:33;;;;;;;9.47;5.00;;;2.00;99.90;;;;;;5053891;28;20463;-77
2022/12/04 07:40:59;;;;;;;7.57;5.20;;;2.10;99.90;;;;;;5054274;28;20405;-77
2022/12/04 07:43:26;;;;;;;8.00;5.93;;;2.10;99.90;;;;;;5057456;28;20897;-77
2022/12/04 07:45:51;;;;;;;6.87;4.93;;;2.10;99.90;;;;;;5053876;28;20802;-77
2022/12/04 07:48:17;;;;;;;8.13;4.73;;;2.10;99.90;;;;;;5054146;28;20409;-77
2022/12/04 07:50:43;;;;;;;6.70;4.80;;;2.00;99.90;;;;;;5054147;28;20206;-76
2022/12/04 07:53:08;;;;;;;9.00;4.83;;;2.00;99.90;;;;;;5056457;28;20560;-78
2022/12/04 07:55:34;;;;;;;9.27;6.03;;;2.00;99.90;;;;;;5059946;28;20412;-78
2022/12/04 07:57:59;;;;;;;9.23;5.20;;;2.10;99.90;;;;;;5059805;28;20167;-78
2022/12/04 08:00:25;;;;;;;9.67;6.43;;;2.10;99.90;;;;;;5059772;28;20700;-77
2022/12/04 08:02:51;;;;;;;8.30;5.63;;;2.10;99.90;;;;;;5060761;28;20187;-78
2022/12/04 08:05:17;;;;;;;11.43;6.20;;;2.10;99.90;;;;;;5061036;28;20220;-78
2022/12/04 08:07:42;;;;;;;8.20;4.70;;;2.10;99.90;;;;;;5058470;28;20926;-78
2022/12/04 08:10:08;;;;;;;12.47;4.60;;;2.10;99.90;;;;;;5060655;28;20959;-78
2022/12/04 08:12:34;;;;;;;8.87;5.77;;;2.10;99.90;;;;;;5058656;28;20195;-78
2022/12/04 08:14:59;;;;;;;8.07;5.70;;;2.20;99.90;;;;;;5059966;28;20475;-78
2022/12/04 08:17:25;;;;;;;9.70;5.20;;;2.20;99.90;;;;;;5060040;28;20167;-78
2022/12/04 08:19:51;;;;;;;10.67;6.53;;;2.20;99.90;;;;;;5058994;28;20178;-77
2022/12/04 08:22:16;;;;;;;10.13;5.60;;;2.20;99.90;;;;;;5058599;28;20185;-77
2022/12/04 08:24:42;;;;;;;9.90;4.63;;;2.20;99.90;;;;;;5058665;28;20174;-77
2022/12/04 08:27:07;;;;;;;9.63;5.43;;;2.20;99.90;;;;;;5060063;28;20182;-77
2022/12/04 08:29:33;;;;;;;8.47;4.77;;;2.10;99.90;;;;;;5058439;28;20178;-77
2022/12/04 08:31:59;;;;;;;9.03;6.67;;;2.20;99.90;;;;;;5059559;28;20724;-77
2022/12/04 08:34:25;;;;;;;11.97;6.93;;;2.20;99.90;;;;;;5059305;28;20204;-76
2022/12/04 08:36:50;;;;;;;11.00;5.30;;;2.20;99.90;;;;;;5059176;28;20177;-78
2022/12/04 08:39:16;;;;;;;11.63;6.07;;;2.10;99.90;;;;;;5059730;28;20171;-78
2022/12/04 08:41:41;;;;;;;11.13;5.90;;;2.10;99.90;;;;;;5058023;28;20628;-77
2022/12/04 08:44:08;;;;;;;10.37;5.93;;;2.10;99.90;;;;;;5057040;28;20194;-77
2022/12/04 08:46:34;;;;;;;8.30;5.63;;;2.10;99.90;;;;;;5052816;28;20224;-77
2022/12/04 08:49:01;;;;;;;7.50;4.83;;;2.10;99.90;;;;;;5054740;28;20413;-78
2022/12/04 08:51:28;;;;;;;9.73;5.90;;;2.10;99.90;;;;;;5058426;28;20175;-78
2022/12/04 08:53:57;;;;;;;7.97;5.93;;;2.10;99.90;;;;;;5056908;28;20468;-78
2022/12/04 08:56:23;;;;;;;11.73;6.03;;;2.20;99.90;;;;;;5057756;28;20415;-77
2022/12/04 08:58:49;;;;;;;10.67;7.00;;;2.20;99.90;;;;;;5058556;28;20405;-77
2022/12/04 09:01:15;;;;;;;7.17;5.20;;;2.30;99.90;;;;;;5058820;28;21161;-78
2022/12/04 09:03:41;;;;;;;9.43;5.80;;;2.30;99.90;;;;;;5059176;28;20199;-78
2022/12/04 09:06:08;;;;;;;13.10;7.10;;;2.40;99.90;;;;;;5059220;28;20414;-78
2022/12/04 09:08:34;;;;;;;10.97;5.67;;;2.30;99.90;;;;;;5059550;28;20440;-77
2022/12/04 09:11:17;;;;;;;11.67;6.27;;;2.30;99.90;;;;;;5059224;28;20413;-76
2022/12/04 09:13:42;;;;;;;11.63;6.20;;;2.40;99.90;;;;;;5058368;28;20468;-77
2022/12/04 09:16:12;;;;;;;14.70;6.70;;;2.30;99.90;;;;;;5052696;28;20417;-77
2022/12/04 09:18:38;;;;;;;9.37;5.40;;;2.30;99.90;;;;;;5052475;28;20221;-76
2022/12/04 09:21:06;;;;;;;13.10;6.40;;;2.20;99.90;;;;;;5052373;28;20402;-76
2022/12/04 09:23:33;;;;;;;10.10;6.00;;;2.30;99.90;;;;;;5052231;28;20764;-76
2022/12/04 09:25:59;;;;;;;9.80;5.50;;;2.40;99.90;;;;;;5052205;28;20456;-77
2022/12/04 09:28:24;;;;;;;9.90;5.37;;;2.40;99.90;;;;;;5051000;28;20409;-78
2022/12/04 09:30:58;;;;;;;11.17;6.20;;;2.30;99.90;;;;;;5056680;28;20182;-78
2022/12/04 09:33:23;;;;;;;10.07;6.60;;;2.20;99.90;;;;;;5059193;28;20256;-77
2022/12/04 09:35:49;;;;;;;12.97;5.47;;;2.10;99.90;;;;;;5059148;28;20808;-78
2022/12/04 09:38:14;;;;;;;10.03;5.57;;;2.10;99.90;;;;;;5058125;28;20265;-77
2022/12/04 09:41:05;;;;;;;6.30;5.10;;;2.10;99.90;;;;;;5050848;28;20177;-77
2022/12/04 09:43:44;;;;;;;10.20;5.47;;;2.10;99.90;;;;;;5051207;28;20217;-78
2022/12/04 09:46:24;;;;;;;12.43;6.80;;;2.20;99.90;;;;;;5051803;28;20405;-76
2022/12/04 09:48:51;;;;;;;9.03;6.80;;;2.20;99.90;;;;;;5052532;28;20412;-77
2022/12/04 09:51:21;;;;;;;15.23;6.03;;;2.30;99.90;;;;;;5054979;28;20426;-77
2022/12/04 09:54:06;;;;;;;12.50;7.00;;;2.20;99.90;;;;;;5056145;28;20499;-77
2022/12/04 09:56:32;;;;;;;8.93;4.93;;;2.20;99.90;;;;;;5057691;28;20492;-77
2022/12/04 09:59:23;;;;;;;9.87;5.93;;;2.20;99.90;;;;;;5055587;28;20409;-78
2022/12/04 10:02:18;;;;;;;13.50;6.27;;;2.30;99.90;;;;;;5057980;28;20551;-77
2022/12/04 10:04:43;;;;;;;11.33;6.03;;;2.40;99.90;;;;;;5052052;28;20922;-78
2022/12/04 10:07:32;;;;;;;9.97;6.07;;;2.40;99.90;;;;;;5052110;28;20405;-77
2022/12/04 10:10:07;;;;;;;10.50;5.60;;;2.40;99.90;;;;;;5040766;28;20182;-77
2022/12/04 10:12:54;;;;;;;7.50;5.63;;;2.40;99.90;;;;;;5051770;28;20425;-77
2022/12/04 10:15:25;;;;;;;10.50;8.50;;;2.40;99.90;;;;;;5051471;28;20845;-77
2022/12/04 10:17:57;;;;;;;10.63;6.67;;;2.50;99.90;;;;;;5051622;28;20453;-77
2022/12/04 10:20:32;;;;;;;10.23;6.87;;;2.50;99.90;;;;;;5054832;28;20393;-78
2022/12/04 10:23:10;;;;;;;13.37;7.00;;;2.50;99.90;;;;;;5058378;28;20507;-78
2022/12/04 10:25:38;;;;;;;11.90;6.63;;;2.50;99.90;;;;;;5058209;28;20397;-78
2022/12/04 10:28:28;;;;;;;7.27;5.50;;;2.40;99.90;;;;;;5056184;28;20420;-78
2022/12/04 10:30:59;;;;;;;8.67;5.07;;;2.50;99.90;;;;;;5058155;28;20919;-77
2022/12/04 10:33:46;;;;;;;9.53;6.50;;;2.50;99.90;;;;;;5058195;28;20873;-78
2022/12/04 10:36:19;;;;;;;10.27;7.43;;;2.50;99.90;;;;;;5056945;28;20405;-77
2022/12/04 10:38:52;;;;;;;12.67;8.07;;;2.50;99.90;;;;;;5057056;28;20397;-76
2022/12/04 10:41:28;;;;;;;9.90;6.17;;;2.50;99.90;;;;;;5052147;28;20401;-76
2022/12/04 10:43:53;;;;;;;12.40;6.70;;;2.60;99.90;;;;;;5051429;28;20459;-76
2022/12/04 10:46:26;;;;;;;11.43;6.83;;;2.60;99.90;;;;;;5051332;28;20409;-76
2022/12/04 10:49:26;;;;;;;8.87;5.60;;;2.60;99.90;;;;;;5058324;28;20168;-77
2022/12/04 10:51:52;;;;;;;8.57;5.57;;;2.70;99.90;;;;;;5044758;28;20409;-77
2022/12/04 10:54:23;;;;;;;9.30;6.10;;;2.80;99.90;;;;;;5052508;28;21000;-78
2022/12/04 10:57:15;;;;;;;10.30;7.10;;;2.80;99.90;;;;;;5051363;28;20809;-77
2022/12/04 10:59:48;;;;;;;15.67;6.00;;;2.70;99.90;;;;;;5048760;28;20945;-78
2022/12/04 11:02:24;;;;;;;13.33;7.10;;;2.70;99.90;;;;;;5053785;28;20397;-77
2022/12/04 11:04:57;;;;;;;10.30;5.43;;;2.70;99.90;;;;;;5059787;28;20451;-77
2022/12/04 11:07:35;;;;;;;9.20;5.87;;;2.80;99.90;;;;;;5061759;28;20463;-77
2022/12/04 11:10:19;;;;;;;12.37;5.50;;;2.80;99.90;;;;;;5055157;28;20722;-76
2022/12/04 11:12:57;;;;;;;10.10;7.97;;;2.80;99.90;;;;;;5053513;28;20874;-76
2022/12/04 11:15:23;;;;;;;11.47;7.70;;;2.80;99.90;;;;;;5060227;28;20510;-78
2022/12/04 11:17:51;;;;;;;11.13;6.30;;;2.80;99.90;;;;;;5061684;28;20401;-78
2022/12/04 11:20:25;;;;;;;11.77;6.77;;;2.80;99.90;;;;;;5061810;28;20477;-77
2022/12/04 11:22:55;;;;;;;9.13;6.50;;;2.90;99.90;;;;;;5061384;28;20416;-76
2022/12/04 11:25:23;;;;;;;13.57;7.13;;;3.00;99.90;;;;;;5054495;28;20437;-76
2022/12/04 11:27:53;;;;;;;6.30;5.03;;;3.00;99.90;;;;;;5054573;28;20401;-75
2022/12/04 11:30:24;;;;;;;13.03;6.60;;;3.00;99.90;;;;;;5054404;28;20402;-75
2022/12/04 11:32:50;;;;;;;16.67;9.30;;;3.00;99.90;;;;;;5053050;28;20433;-75
2022/12/04 11:35:30;;;;;;;18.50;9.47;;;2.90;99.90;;;;;;5054106;28;20444;-76
2022/12/04 11:38:16;;;;;;;12.93;6.20;;;2.90;99.90;;;;;;5054320;28;20402;-76
2022/12/04 11:40:51;;;;;;;12.87;7.43;;;2.90;99.90;;;;;;5054241;28;20401;-76
2022/12/04 11:43:17;;;;;;;9.00;6.40;;;2.90;99.90;;;;;;5054055;28;20425;-76
2022/12/04 11:46:05;;;;;;;13.20;6.60;;;3.00;99.90;;;;;;5053975;28;20441;-76
2022/12/04 11:48:41;;;;;;;11.90;7.20;;;2.90;99.90;;;;;;5054185;28;20463;-76
2022/12/04 11:51:28;;;;;;;10.17;6.27;;;3.00;99.90;;;;;;5054104;28;20406;-76
2022/12/04 11:54:16;;;;;;;11.90;6.97;;;3.00;99.90;;;;;;5053893;28;20452;-76
2022/12/04 11:56:45;;;;;;;10.30;7.60;;;3.10;99.90;;;;;;5054102;28;20899;-76
2022/12/04 11:59:32;;;;;;;10.73;6.73;;;3.00;99.90;;;;;;5053943;28;20488;-76
2022/12/04 12:02:50;;;;;;;14.13;6.33;;;3.10;99.90;;;;;;5053919;28;20408;-76
2022/12/04 12:05:38;;;;;;;11.30;6.53;;;3.10;99.90;;;;;;5052207;28;20453;-76
2022/12/04 12:08:06;;;;;;;13.47;5.70;;;3.10;99.90;;;;;;5053962;28;20419;-76
2022/12/04 12:10:41;;;;;;;11.50;6.40;;;3.10;99.90;;;;;;5053717;28;20404;-76
2022/12/04 12:13:34;;;;;;;9.50;5.57;;;3.20;99.90;;;;;;5053622;28;20421;-76
2022/12/04 12:16:28;;;;;;;10.80;6.20;;;3.20;99.90;;;;;;5052698;28;20419;-76
2022/12/04 12:19:36;;;;;;;11.90;5.60;;;3.20;99.90;;;;;;5052307;28;20409;-76
2022/12/04 12:22:16;;;;;;;7.83;4.97;;;3.20;99.90;;;;;;5053481;28;20397;-76
2022/12/04 12:24:51;;;;;;;9.80;5.60;;;3.20;99.90;;;;;;5053269;28;20397;-76
2022/12/04 12:27:28;;;;;;;9.53;5.13;;;3.30;99.90;;;;;;5053473;28;20377;-76
2022/12/04 12:30:07;;;;;;;7.43;4.70;;;3.40;99.90;;;;;;5053393;28;20397;-76
2022/12/04 12:33:27;;;;;;;10.53;5.80;;;3.30;99.90;;;;;;5053270;28;20444;-76
2022/12/04 12:36:08;;;;;;;11.47;5.83;;;3.30;99.90;;;;;;5033984;28;20429;-76
2022/12/04 12:38:54;;;;;;;11.90;6.67;;;3.40;99.90;;;;;;5052909;28;20463;-76
2022/12/04 12:41:37;;;;;;;12.97;7.30;;;3.50;99.90;;;;;;5053159;28;20497;-76
2022/12/04 12:44:15;;;;;;;15.03;7.23;;;3.50;99.90;;;;;;5053060;28;20418;-76
2022/12/04 12:46:50;;;;;;;9.67;6.30;;;3.50;99.90;;;;;;5053116;28;20425;-76
2022/12/04 12:49:28;;;;;;;10.97;6.53;;;3.50;99.90;;;;;;5052014;28;20917;-76
2022/12/04 12:51:57;;;;;;;11.80;6.60;;;3.40;99.90;;;;;;5052976;28;20795;-76
2022/12/04 12:54:45;;;;;;;10.83;6.93;;;3.40;99.90;;;;;;5052419;28;20463;-76
2022/12/04 12:57:40;;;;;;;9.97;7.00;;;3.40;99.90;;;;;;5052705;28;20829;-76
2022/12/04 13:00:21;;;;;;;17.63;9.83;;;3.50;99.90;;;;;;5052792;28;20414;-75
2022/12/04 13:03:00;;;;;;;14.97;8.47;;;3.60;99.90;;;;;;5052708;28;20548;-76
2022/12/04 13:05:32;;;;;;;9.67;6.13;;;3.60;99.90;;;;;;5052575;28;20405;-77
2022/12/04 13:08:21;;;;;;;14.07;8.67;;;3.60;99.90;;;;;;5052704;28;20764;-76
2022/12/04 13:11:16;;;;;;;13.27;7.77;;;3.70;99.90;;;;;;5052590;28;20397;-75
2022/12/04 13:13:47;;;;;;;10.47;6.10;;;3.70;99.90;;;;;;5052506;28;20544;-75
2022/12/04 13:16:27;;;;;;;19.80;11.27;;;3.80;99.90;;;;;;5052400;28;20409;-76
2022/12/04 13:19:14;;;;;;;10.67;6.10;;;3.80;99.90;;;;;;5052631;28;20734;-76
2022/12/04 13:22:24;;;;;;;10.13;6.30;;;3.80;99.90;;;;;;5052657;28;20448;-76
2022/12/04 13:25:00;;;;;;;6.50;5.00;;;3.80;99.90;;;;;;5051508;28;20520;-76
2022/12/04 13:28:01;;;;;;;15.63;8.93;;;3.80;99.90;;;;;;5051341;28;20415;-76